Time;durP1;ratioP1;P1;durP2;ratioP2;P2;SDS_P1;SDS_P2;PMS_P1;PMS_P2;Temp;Humidity;BMP_temperature;BMP_pressure;BME280_temperature;BME280_humidity;BME280_pressure;Samples;Min_cycle;Max_cycle;Signal;HPM_P1;HPM_P2
2023/05/24 00:01:32;;;;;;;5.13;2.70;;;17.40;99.90;;;;;;4897538;29;20220;-87
2023/05/24 00:04:03;;;;;;;8.87;3.13;;;17.40;99.90;;;;;;4903462;29;20212;-87
2023/05/24 00:06:36;;;;;;;7.63;3.00;;;17.40;99.90;;;;;;4936061;29;20204;-88
2023/05/24 00:09:10;;;;;;;5.13;2.47;;;17.40;99.90;;;;;;4919291;29;20237;-87
2023/05/24 00:11:41;;;;;;;8.10;3.03;;;17.30;99.90;;;;;;4916268;29;20657;-88
2023/05/24 00:14:13;;;;;;;6.73;2.73;;;17.20;99.90;;;;;;4917206;29;20225;-87
2023/05/24 00:16:47;;;;;;;7.07;2.93;;;17.20;99.90;;;;;;4916982;29;20208;-88
2023/05/24 00:19:20;;;;;;;6.13;2.87;;;17.20;99.90;;;;;;4915453;29;20212;-87
2023/05/24 00:21:52;;;;;;;4.87;2.60;;;17.30;99.90;;;;;;4913381;29;20236;-87
2023/05/24 00:24:25;;;;;;;6.63;2.90;;;17.30;99.90;;;;;;4901500;29;20209;-87
2023/05/24 00:26:57;;;;;;;7.70;3.17;;;17.40;99.90;;;;;;4896966;29;20209;-87
2023/05/24 00:29:28;;;;;;;5.10;2.70;;;17.40;99.90;;;;;;4911141;29;20227;-87
2023/05/24 00:32:01;;;;;;;8.07;2.90;;;17.40;99.90;;;;;;4914004;29;20214;-87
2023/05/24 00:34:33;;;;;;;5.53;2.50;;;17.50;99.90;;;;;;4921333;29;20204;-87
2023/05/24 00:37:06;;;;;;;5.93;2.53;;;17.50;99.90;;;;;;4934546;29;20263;-87
2023/05/24 00:39:40;;;;;;;5.80;2.60;;;17.60;99.90;;;;;;4914820;29;20205;-88
2023/05/24 00:42:11;;;;;;;5.77;2.50;;;17.50;99.90;;;;;;4896666;29;20232;-87
2023/05/24 00:44:42;;;;;;;6.30;2.47;;;17.60;99.90;;;;;;4895475;29;20564;-86
2023/05/24 00:47:13;;;;;;;6.33;2.77;;;17.70;99.90;;;;;;4833698;29;1884428;-86
2023/05/24 00:49:44;;;;;;;6.63;2.50;;;17.90;99.90;;;;;;4914611;29;20560;-87
2023/05/24 00:52:16;;;;;;;5.40;2.50;;;18.00;99.90;;;;;;4898242;29;20237;-87
2023/05/24 00:54:49;;;;;;;6.67;3.00;;;18.00;99.90;;;;;;4912940;29;20209;-87
2023/05/24 00:57:22;;;;;;;5.40;2.63;;;18.30;99.90;;;;;;4912617;29;20218;-87
2023/05/24 00:59:54;;;;;;;7.80;2.30;;;18.30;99.90;;;;;;4909604;29;20286;-88
2023/05/24 01:02:26;;;;;;;7.87;2.70;;;18.20;99.90;;;;;;4918678;29;20216;-88
2023/05/24 01:04:57;;;;;;;6.03;2.70;;;18.20;99.90;;;;;;4913121;29;20638;-87
2023/05/24 01:07:38;;;;;;;8.40;3.20;;;18.20;99.90;;;;;;4916745;29;20213;-87
2023/05/24 01:10:20;;;;;;;6.00;2.53;;;18.10;99.90;;;;;;4923791;29;20303;-88
2023/05/24 01:13:00;;;;;;;7.87;2.77;;;18.00;99.90;;;;;;4935006;29;20624;-87
2023/05/24 01:15:41;;;;;;;7.57;2.70;;;18.00;99.90;;;;;;4898255;29;20239;-87
2023/05/24 01:18:18;;;;;;;6.60;2.80;;;17.90;99.90;;;;;;4898069;29;20228;-88
2023/05/24 01:21:03;;;;;;;7.27;3.03;;;17.70;99.90;;;;;;4921649;29;20237;-88
2023/05/24 01:23:47;;;;;;;10.33;3.17;;;17.60;99.90;;;;;;4925867;29;20204;-87
2023/05/24 01:26:39;;;;;;;5.57;2.93;;;17.50;99.90;;;;;;4927731;29;20219;-86
2023/05/24 01:29:13;;;;;;;7.43;2.83;;;17.40;99.90;;;;;;4922948;29;20838;-87
2023/05/24 01:31:44;;;;;;;6.97;2.70;;;17.20;99.90;;;;;;4900170;29;20206;-88
2023/05/24 01:34:16;;;;;;;9.57;2.97;;;17.20;99.90;;;;;;4899603;29;20892;-88
2023/05/24 01:36:47;;;;;;;7.20;2.77;;;17.00;99.90;;;;;;4904923;29;20225;-86
2023/05/24 01:39:19;;;;;;;4.63;2.53;;;17.00;99.90;;;;;;4915773;29;20223;-87
2023/05/24 01:42:00;;;;;;;5.87;2.90;;;16.90;99.90;;;;;;4917404;29;20217;-88
2023/05/24 01:44:39;;;;;;;6.27;3.00;;;16.80;99.90;;;;;;4916548;29;20235;-88
2023/05/24 01:47:22;;;;;;;6.73;3.10;;;16.80;99.90;;;;;;4916360;29;20217;-88
2023/05/24 01:49:57;;;;;;;8.23;2.80;;;16.80;99.90;;;;;;4916294;29;20726;-87
2023/05/24 01:52:32;;;;;;;7.53;3.10;;;16.80;99.90;;;;;;4917242;29;20692;-85
2023/05/24 01:55:05;;;;;;;6.27;2.47;;;16.80;99.90;;;;;;4917569;29;20215;-87
2023/05/24 01:57:40;;;;;;;10.80;3.30;;;16.70;99.90;;;;;;4916579;29;20280;-87
2023/05/24 02:00:15;;;;;;;6.23;2.93;;;16.60;99.90;;;;;;4915412;29;20304;-88
2023/05/24 02:02:47;;;;;;;9.80;3.30;;;16.60;99.90;;;;;;4897276;29;20213;-87
2023/05/24 02:05:19;;;;;;;7.80;2.53;;;16.60;99.90;;;;;;4898678;29;20248;-89
2023/05/24 02:07:50;;;;;;;6.93;3.43;;;16.60;99.90;;;;;;4917579;29;20216;-95
2023/05/24 02:10:21;;;;;;;7.97;3.10;;;16.60;99.90;;;;;;4910822;29;20217;-94
2023/05/24 02:12:53;;;;;;;7.07;2.73;;;16.50;99.90;;;;;;4922794;29;20256;-91
2023/05/24 02:15:29;;;;;;;7.13;2.50;;;16.60;99.90;;;;;;4920970;29;20215;-91
2023/05/24 02:18:01;;;;;;;8.37;2.80;;;16.50;99.90;;;;;;4918366;29;20387;-89
2023/05/24 02:20:35;;;;;;;7.10;2.87;;;16.50;99.90;;;;;;4927263;29;20205;-93
2023/05/24 02:23:07;;;;;;;7.87;2.47;;;16.40;99.90;;;;;;4935044;29;20208;-93
2023/05/24 02:25:39;;;;;;;7.20;2.97;;;16.30;99.90;;;;;;4937538;29;20244;-94
2023/05/24 02:28:11;;;;;;;6.50;2.80;;;16.30;99.90;;;;;;4929860;29;20205;-93
2023/05/24 02:30:46;;;;;;;6.07;2.90;;;16.20;99.90;;;;;;4926369;29;20371;-94
2023/05/24 02:33:18;;;;;;;10.30;3.10;;;16.20;99.90;;;;;;4917681;29;20244;-93
2023/05/24 02:35:50;;;;;;;5.47;2.80;;;16.20;99.90;;;;;;4920451;29;20209;-93
2023/05/24 02:38:21;;;;;;;9.37;2.90;;;16.20;99.90;;;;;;4921221;29;20228;-90
2023/05/24 02:40:52;;;;;;;7.07;3.23;;;16.20;99.90;;;;;;4912812;29;20277;-92
2023/05/24 02:43:24;;;;;;;7.90;3.20;;;16.10;99.90;;;;;;4917314;29;20237;-92
2023/05/24 02:45:58;;;;;;;7.87;2.90;;;16.10;99.90;;;;;;4920239;29;20269;-91
2023/05/24 02:48:31;;;;;;;10.53;3.47;;;16.10;99.90;;;;;;4923436;29;20320;-90
2023/05/24 02:51:03;;;;;;;7.80;3.07;;;16.10;99.90;;;;;;4909570;29;20222;-90
2023/05/24 02:53:35;;;;;;;8.30;2.90;;;16.10;99.90;;;;;;4915448;29;20223;-91
2023/05/24 02:56:07;;;;;;;5.90;2.70;;;16.00;99.90;;;;;;4916439;29;20213;-91
2023/05/24 02:58:40;;;;;;;8.23;2.87;;;16.00;99.90;;;;;;4907677;29;20234;-91
2023/05/24 03:01:14;;;;;;;7.60;3.03;;;16.00;99.90;;;;;;4916967;29;20224;-91
2023/05/24 03:03:46;;;;;;;10.10;3.10;;;16.00;99.90;;;;;;4917801;29;20216;-92
2023/05/24 03:06:17;;;;;;;7.43;3.13;;;15.90;99.90;;;;;;4918605;29;20209;-92
2023/05/24 03:08:48;;;;;;;10.27;3.43;;;15.90;99.90;;;;;;4901080;29;20293;-92
2023/05/24 03:11:21;;;;;;;7.03;2.73;;;15.80;99.90;;;;;;4915318;29;20216;-93
2023/05/24 03:13:54;;;;;;;7.70;2.70;;;15.80;99.90;;;;;;4916622;29;20553;-92
2023/05/24 03:16:28;;;;;;;9.47;3.17;;;15.70;99.90;;;;;;4915065;29;20217;-91
2023/05/24 03:18:59;;;;;;;5.50;2.90;;;15.70;99.90;;;;;;4912867;29;20288;-92
2023/05/24 03:21:31;;;;;;;6.40;2.67;;;15.70;99.90;;;;;;4910590;29;20206;-92
2023/05/24 03:24:02;;;;;;;6.43;3.47;;;15.60;99.90;;;;;;4918320;29;20209;-92
2023/05/24 03:26:35;;;;;;;5.40;3.00;;;15.60;99.90;;;;;;4917553;29;20209;-91
2023/05/24 03:29:07;;;;;;;7.27;3.40;;;15.60;99.90;;;;;;4916200;29;20239;-92
2023/05/24 03:31:40;;;;;;;7.00;2.87;;;15.60;99.90;;;;;;4922584;29;20197;-92
2023/05/24 03:34:12;;;;;;;8.80;3.33;;;15.50;99.90;;;;;;4922630;29;20867;-91
2023/05/24 03:36:43;;;;;;;7.47;3.10;;;15.50;99.90;;;;;;4915551;29;20617;-93
2023/05/24 03:39:15;;;;;;;6.70;3.13;;;15.40;99.90;;;;;;4903546;29;20785;-93
2023/05/24 03:41:47;;;;;;;3.93;2.70;;;15.40;99.90;;;;;;4919530;29;20212;-92
2023/05/24 03:44:18;;;;;;;4.80;2.67;;;15.40;99.90;;;;;;4919441;29;20288;-92
2023/05/24 03:46:54;;;;;;;7.67;2.83;;;15.40;99.90;;;;;;4918973;29;20764;-92
2023/05/24 03:49:25;;;;;;;6.57;2.90;;;15.30;99.90;;;;;;4900187;29;20293;-92
2023/05/24 03:51:57;;;;;;;7.17;3.27;;;15.30;99.90;;;;;;4900324;29;20214;-92
2023/05/24 03:54:28;;;;;;;7.70;2.57;;;15.20;99.90;;;;;;4899745;29;20639;-93
2023/05/24 03:57:02;;;;;;;7.30;2.60;;;15.20;99.90;;;;;;4900715;29;20222;-91
2023/05/24 03:59:33;;;;;;;4.93;2.83;;;15.20;99.90;;;;;;4917047;29;20224;-91
2023/05/24 04:02:07;;;;;;;7.73;2.33;;;15.20;99.90;;;;;;4908394;29;20224;-91
2023/05/24 04:04:38;;;;;;;5.13;2.47;;;15.20;99.90;;;;;;4914986;29;20245;-91
2023/05/24 04:07:10;;;;;;;5.97;2.80;;;15.10;99.90;;;;;;4918907;29;20611;-91
2023/05/24 04:09:42;;;;;;;5.50;2.63;;;15.10;99.90;;;;;;4903125;29;20238;-91
2023/05/24 04:12:13;;;;;;;5.43;2.80;;;15.10;99.90;;;;;;4912096;29;20221;-91
2023/05/24 04:14:45;;;;;;;5.47;3.17;;;15.10;99.90;;;;;;4906335;29;20612;-90
2023/05/24 04:17:18;;;;;;;4.47;2.70;;;15.10;99.90;;;;;;4914085;29;20236;-92
2023/05/24 04:19:50;;;;;;;7.47;2.73;;;15.10;99.90;;;;;;4917442;29;20220;-92
2023/05/24 04:22:21;;;;;;;4.83;2.40;;;15.00;99.90;;;;;;4918017;29;20600;-90
2023/05/24 04:24:54;;;;;;;3.27;2.10;;;15.00;99.90;;;;;;4917043;29;20247;-91
2023/05/24 04:27:26;;;;;;;6.37;2.80;;;15.00;99.90;;;;;;4919561;29;20217;-91
2023/05/24 04:29:58;;;;;;;5.63;2.83;;;14.90;99.90;;;;;;4917375;29;20336;-91
2023/05/24 04:32:31;;;;;;;6.50;3.00;;;14.90;99.90;;;;;;4901419;29;20300;-92
2023/05/24 04:35:04;;;;;;;6.10;2.80;;;14.90;99.90;;;;;;4911992;29;20530;-91
2023/05/24 04:37:36;;;;;;;6.83;2.80;;;14.90;99.90;;;;;;4910346;29;21857;-91
2023/05/24 04:40:09;;;;;;;6.67;2.83;;;14.80;99.90;;;;;;4918625;29;20205;-91
2023/05/24 04:42:42;;;;;;;6.40;3.17;;;14.80;99.90;;;;;;4912595;29;20209;-91
2023/05/24 04:45:14;;;;;;;5.67;3.00;;;14.70;99.90;;;;;;4900035;29;20256;-91
2023/05/24 04:47:47;;;;;;;6.23;3.23;;;14.70;99.90;;;;;;4898686;29;20289;-91
2023/05/24 04:50:18;;;;;;;5.93;3.30;;;14.70;99.90;;;;;;4916012;29;20248;-91
2023/05/24 04:52:50;;;;;;;6.70;2.63;;;14.70;99.90;;;;;;4905062;29;20205;-90
2023/05/24 04:55:22;;;;;;;7.73;2.90;;;14.60;99.90;;;;;;4918045;29;20211;-90
2023/05/24 04:57:54;;;;;;;10.03;3.00;;;14.60;99.90;;;;;;4917072;29;20217;-90
2023/05/24 05:00:26;;;;;;;8.77;3.30;;;14.60;99.90;;;;;;4917992;29;20213;-90
2023/05/24 05:03:00;;;;;;;6.33;2.90;;;14.50;99.90;;;;;;4914862;29;20213;-91
2023/05/24 05:05:32;;;;;;;6.00;3.07;;;14.50;99.90;;;;;;4908734;29;20258;-92
2023/05/24 05:08:03;;;;;;;8.00;2.80;;;14.50;99.90;;;;;;4919393;29;20292;-90
2023/05/24 05:10:35;;;;;;;6.33;3.20;;;14.50;99.90;;;;;;4936739;29;20247;-90
2023/05/24 05:13:06;;;;;;;8.23;3.00;;;14.40;99.90;;;;;;4918533;29;20319;-90
2023/05/24 05:15:38;;;;;;;6.00;3.03;;;14.40;99.90;;;;;;4917525;29;20278;-90
2023/05/24 05:18:15;;;;;;;8.37;3.43;;;14.40;99.90;;;;;;4908452;29;20295;-90
2023/05/24 05:20:47;;;;;;;5.87;3.23;;;14.40;99.90;;;;;;4913689;29;20200;-91
2023/05/24 05:23:20;;;;;;;8.27;3.30;;;14.30;99.90;;;;;;4905785;29;20304;-91
2023/05/24 05:25:51;;;;;;;7.57;3.17;;;14.30;99.90;;;;;;4917205;29;20213;-94
2023/05/24 05:28:23;;;;;;;7.83;3.00;;;14.40;99.90;;;;;;4909596;29;20244;-92
2023/05/24 05:30:55;;;;;;;6.67;3.17;;;14.30;99.90;;;;;;4898231;29;20241;-93
2023/05/24 05:33:29;;;;;;;6.10;2.93;;;14.30;99.90;;;;;;4905405;29;20208;-93
2023/05/24 05:36:01;;;;;;;7.33;3.20;;;14.20;99.90;;;;;;4911598;29;20209;-89
2023/05/24 05:38:32;;;;;;;6.27;3.37;;;14.10;99.90;;;;;;4909390;29;20216;-90
2023/05/24 05:41:04;;;;;;;6.60;3.27;;;14.00;99.90;;;;;;4910726;29;20857;-90
2023/05/24 05:43:35;;;;;;;8.77;3.47;;;14.00;99.90;;;;;;4931781;29;20258;-90
2023/05/24 05:46:06;;;;;;;9.37;3.37;;;13.90;99.90;;;;;;4915455;29;20276;-89
2023/05/24 05:48:40;;;;;;;5.53;3.20;;;13.90;99.90;;;;;;4913353;29;20212;-89
2023/05/24 05:51:14;;;;;;;7.33;3.40;;;13.90;99.90;;;;;;4918030;29;20232;-89
2023/05/24 05:53:46;;;;;;;6.80;3.23;;;13.90;99.90;;;;;;4917838;29;20255;-89
2023/05/24 05:56:17;;;;;;;7.07;3.20;;;13.90;99.90;;;;;;4909535;29;20208;-90
2023/05/24 05:58:48;;;;;;;6.00;3.20;;;13.90;99.90;;;;;;4917835;29;20219;-88
2023/05/24 06:01:19;;;;;;;7.30;3.50;;;13.90;99.90;;;;;;4920609;29;20248;-89
2023/05/24 06:03:53;;;;;;;7.10;3.33;;;13.90;99.90;;;;;;4921285;29;20694;-88
2023/05/24 06:06:25;;;;;;;8.27;3.83;;;13.90;99.90;;;;;;4919128;29;20810;-89
2023/05/24 06:09:00;;;;;;;8.13;3.67;;;13.90;99.90;;;;;;4919090;29;20224;-88
2023/05/24 06:11:32;;;;;;;6.67;3.37;;;13.90;99.90;;;;;;4912808;29;20236;-89
2023/05/24 06:14:04;;;;;;;8.50;3.87;;;13.90;99.90;;;;;;4903187;29;20312;-88
2023/05/24 06:16:40;;;;;;;8.60;3.60;;;13.90;99.90;;;;;;4919443;29;20220;-89
2023/05/24 06:19:13;;;;;;;6.07;3.57;;;13.90;99.90;;;;;;4904815;29;20216;-88
2023/05/24 06:21:46;;;;;;;8.93;3.93;;;13.90;99.90;;;;;;4919329;29;20213;-88
2023/05/24 06:24:20;;;;;;;8.50;4.47;;;13.90;99.90;;;;;;4919867;29;20685;-89
2023/05/24 06:26:53;;;;;;;4.73;3.30;;;13.90;99.90;;;;;;4908067;29;20217;-89
2023/05/24 06:29:24;;;;;;;7.07;3.60;;;13.80;99.90;;;;;;4901158;29;20217;-89
2023/05/24 06:31:56;;;;;;;7.60;3.40;;;13.80;99.90;;;;;;4901292;29;20233;-90
2023/05/24 06:34:30;;;;;;;9.97;3.17;;;13.90;99.90;;;;;;4903393;29;20246;-89
2023/05/24 06:37:02;;;;;;;9.43;4.10;;;13.80;99.90;;;;;;4921480;29;20211;-89
2023/05/24 06:39:34;;;;;;;5.90;3.67;;;13.70;99.90;;;;;;4917089;29;20217;-89
2023/05/24 06:42:07;;;;;;;8.93;4.33;;;13.80;99.90;;;;;;4901756;29;20240;-90
2023/05/24 06:44:38;;;;;;;7.47;3.70;;;13.80;99.90;;;;;;4901870;29;20309;-90
2023/05/24 06:47:10;;;;;;;9.03;3.73;;;13.80;99.90;;;;;;4905117;29;20285;-90
2023/05/24 06:49:44;;;;;;;7.07;4.10;;;13.80;99.90;;;;;;4900488;29;20687;-89
2023/05/24 06:52:16;;;;;;;8.23;3.57;;;13.70;99.90;;;;;;4901073;29;20237;-89
2023/05/24 06:54:47;;;;;;;6.93;4.10;;;13.80;99.90;;;;;;4900375;29;20260;-88
2023/05/24 06:57:18;;;;;;;9.93;4.33;;;13.80;99.90;;;;;;4902147;29;20213;-89
2023/05/24 06:59:49;;;;;;;10.47;4.03;;;13.70;99.90;;;;;;4900231;29;20228;-89
2023/05/24 07:02:25;;;;;;;8.13;3.80;;;13.70;99.90;;;;;;4916779;29;20209;-89
2023/05/24 07:04:59;;;;;;;8.90;4.50;;;13.60;99.90;;;;;;4920725;29;20577;-88
2023/05/24 07:07:31;;;;;;;10.93;4.30;;;13.60;99.90;;;;;;4919913;29;20209;-89
2023/05/24 07:10:02;;;;;;;10.77;4.37;;;13.60;99.90;;;;;;4919176;29;20248;-88
2023/05/24 07:12:34;;;;;;;9.37;4.10;;;13.70;99.90;;;;;;4918921;29;20239;-88
2023/05/24 07:15:08;;;;;;;8.37;4.10;;;13.70;99.90;;;;;;4919723;29;20299;-89
2023/05/24 07:17:40;;;;;;;10.70;4.23;;;13.70;99.90;;;;;;4900177;29;20216;-91
2023/05/24 07:20:14;;;;;;;10.43;4.30;;;13.60;99.90;;;;;;4900545;29;20252;-90
2023/05/24 07:22:46;;;;;;;6.57;3.87;;;13.60;99.90;;;;;;4907831;29;20205;-89
2023/05/24 07:25:17;;;;;;;8.80;4.27;;;13.60;99.90;;;;;;4919015;29;20220;-88
2023/05/24 07:27:49;;;;;;;7.23;3.73;;;13.60;99.90;;;;;;4918507;29;20213;-89
2023/05/24 07:30:20;;;;;;;11.63;4.17;;;13.50;99.90;;;;;;4911406;29;20228;-93
2023/05/24 07:33:04;;;;;;;8.97;4.30;;;13.50;99.90;;;;;;4901201;29;20269;-92
2023/05/24 07:35:38;;;;;;;8.33;3.40;;;13.50;99.90;;;;;;4917624;29;20220;-93
2023/05/24 07:38:10;;;;;;;9.90;3.80;;;13.50;99.90;;;;;;4920225;29;20215;-90
2023/05/24 07:40:41;;;;;;;9.77;4.23;;;13.60;99.90;;;;;;4911030;29;20243;-92
2023/05/24 07:43:14;;;;;;;6.80;4.13;;;13.60;99.90;;;;;;4920301;29;20229;-91
2023/05/24 07:45:46;;;;;;;9.43;4.17;;;13.60;99.90;;;;;;4924150;29;20212;-91
2023/05/24 07:48:17;;;;;;;8.67;4.07;;;13.50;99.90;;;;;;4930288;29;20193;-92
2023/05/24 07:50:52;;;;;;;9.47;3.97;;;13.50;99.90;;;;;;4939310;29;20216;-92
2023/05/24 07:53:24;;;;;;;8.73;3.63;;;13.50;99.90;;;;;;4938074;29;20287;-92
2023/05/24 07:55:55;;;;;;;10.20;3.97;;;13.50;99.90;;;;;;4921655;29;20309;-93
2023/05/24 07:58:27;;;;;;;7.73;4.07;;;13.50;99.90;;;;;;4928416;29;20223;-91
2023/05/24 08:00:58;;;;;;;7.07;3.57;;;13.40;99.90;;;;;;4934013;29;20221;-91
2023/05/24 08:03:30;;;;;;;9.10;4.00;;;13.40;99.90;;;;;;4938042;29;20285;-91
2023/05/24 08:06:04;;;;;;;7.03;3.07;;;13.40;99.90;;;;;;4924331;29;20213;-90
2023/05/24 08:08:35;;;;;;;7.47;3.43;;;13.40;99.90;;;;;;4905020;29;20205;-92
2023/05/24 08:11:07;;;;;;;8.33;3.40;;;13.40;99.90;;;;;;4915496;29;20296;-90
2023/05/24 08:13:39;;;;;;;7.33;3.43;;;13.30;99.90;;;;;;4917205;29;20316;-91
2023/05/24 08:16:11;;;;;;;6.77;3.47;;;13.30;99.90;;;;;;4920195;29;20572;-90
2023/05/24 08:18:42;;;;;;;7.13;3.70;;;13.30;99.90;;;;;;4918469;29;20596;-93
2023/05/24 08:21:16;;;;;;;11.07;3.87;;;13.30;99.90;;;;;;4917355;29;20644;-92
2023/05/24 08:23:48;;;;;;;6.30;4.10;;;13.30;99.90;;;;;;4911773;29;20582;-91
2023/05/24 08:26:21;;;;;;;7.50;3.90;;;13.30;99.90;;;;;;4911094;29;20248;-92
2023/05/24 08:28:52;;;;;;;14.63;4.40;;;13.20;99.90;;;;;;4910755;29;20237;-91
2023/05/24 08:31:24;;;;;;;10.00;4.33;;;13.20;99.90;;;;;;4918701;29;20209;-91
2023/05/24 08:33:57;;;;;;;7.00;3.93;;;13.20;99.90;;;;;;4915047;29;20213;-91
2023/05/24 08:36:31;;;;;;;10.77;4.20;;;13.20;99.90;;;;;;4919149;29;20673;-92
2023/05/24 08:39:03;;;;;;;8.40;3.87;;;13.20;99.90;;;;;;4918916;29;20209;-93
2023/05/24 08:41:36;;;;;;;10.03;5.03;;;13.20;99.90;;;;;;4919273;29;20598;-92
2023/05/24 08:44:08;;;;;;;10.13;4.30;;;13.20;99.90;;;;;;4918206;29;20212;-93
2023/05/24 08:46:41;;;;;;;11.87;4.27;;;13.20;99.90;;;;;;4932894;29;20208;-93
2023/05/24 08:49:13;;;;;;;7.40;3.80;;;13.20;99.90;;;;;;4923534;29;20209;-93
2023/05/24 08:51:47;;;;;;;10.87;4.50;;;13.20;99.90;;;;;;4905826;29;20694;-92
2023/05/24 08:54:20;;;;;;;8.00;4.00;;;13.20;99.90;;;;;;4904465;28;20224;-93
2023/05/24 08:56:53;;;;;;;11.60;4.53;;;13.20;99.90;;;;;;4917669;29;20220;-91
2023/05/24 08:59:26;;;;;;;7.07;3.80;;;13.10;99.90;;;;;;4917678;29;20213;-92
2023/05/24 09:01:59;;;;;;;8.57;4.40;;;13.10;99.90;;;;;;4918930;29;20229;-92
2023/05/24 09:04:32;;;;;;;12.33;4.40;;;13.10;99.90;;;;;;4916151;29;20241;-94
2023/05/24 09:07:06;;;;;;;8.63;4.10;;;13.00;99.90;;;;;;4917623;29;20205;-91
2023/05/24 09:09:44;;;;;;;8.73;3.70;;;13.00;99.90;;;;;;4916738;29;20307;-90
2023/05/24 09:12:20;;;;;;;7.57;4.03;;;13.00;99.90;;;;;;4920539;29;20582;-91
2023/05/24 09:15:08;;;;;;;8.80;4.00;;;13.00;99.90;;;;;;4918948;29;20240;-91
2023/05/24 09:17:41;;;;;;;10.63;4.67;;;12.90;99.90;;;;;;4920624;29;20224;-94
2023/05/24 09:20:15;;;;;;;8.50;4.00;;;12.90;99.90;;;;;;4915287;29;20213;-91
2023/05/24 09:22:53;;;;;;;8.07;3.93;;;12.90;99.90;;;;;;4901574;29;20217;-90
2023/05/24 09:25:29;;;;;;;7.33;3.77;;;12.90;99.90;;;;;;4899990;29;20642;-90
2023/05/24 09:28:06;;;;;;;10.00;3.67;;;12.90;99.90;;;;;;4899904;29;20653;-91
2023/05/24 09:30:38;;;;;;;7.43;3.93;;;12.90;99.90;;;;;;4917992;29;20208;-91
2023/05/24 09:33:10;;;;;;;11.77;4.50;;;12.90;99.90;;;;;;4916743;29;20681;-91
2023/05/24 09:35:45;;;;;;;7.77;3.57;;;12.90;99.90;;;;;;4918015;29;20245;-92
2023/05/24 09:38:21;;;;;;;9.63;4.10;;;12.80;99.90;;;;;;4916877;29;20635;-93
2023/05/24 09:41:05;;;;;;;8.50;4.10;;;12.90;99.90;;;;;;4905744;29;20228;-92
2023/05/24 09:43:48;;;;;;;10.23;3.93;;;12.80;99.90;;;;;;4917492;29;20232;-93
2023/05/24 09:46:20;;;;;;;8.40;4.30;;;12.80;99.90;;;;;;4917388;29;20304;-93
2023/05/24 09:48:59;;;;;;;8.97;4.10;;;12.80;99.90;;;;;;4917404;29;20268;-91
2023/05/24 09:51:31;;;;;;;10.87;4.07;;;12.80;99.90;;;;;;4918318;29;20228;-92
2023/05/24 09:54:07;;;;;;;6.93;3.70;;;12.70;99.90;;;;;;4917545;29;20237;-93
2023/05/24 09:56:40;;;;;;;10.23;4.77;;;12.70;99.90;;;;;;4936056;29;20187;-92
2023/05/24 09:59:12;;;;;;;8.17;3.67;;;12.70;99.90;;;;;;4936597;29;20197;-93
2023/05/24 10:01:44;;;;;;;10.53;4.67;;;12.70;99.90;;;;;;4932279;29;20288;-93
2023/05/24 10:04:16;;;;;;;7.53;3.83;;;12.70;99.90;;;;;;4921192;29;20209;-94
2023/05/24 10:06:48;;;;;;;8.83;3.70;;;12.70;99.90;;;;;;4911828;29;20205;-93
2023/05/24 10:09:22;;;;;;;7.17;3.80;;;12.80;99.90;;;;;;4927099;29;20292;-93
2023/05/24 10:11:55;;;;;;;9.30;4.17;;;12.70;99.90;;;;;;4910464;29;20220;-92
2023/05/24 10:14:27;;;;;;;11.80;4.00;;;12.70;99.90;;;;;;4917827;29;20217;-92
2023/05/24 10:16:59;;;;;;;8.80;4.00;;;12.80;99.90;;;;;;4919828;29;20268;-90
2023/05/24 10:19:31;;;;;;;10.53;4.20;;;12.70;99.90;;;;;;4916424;29;20260;-91
2023/05/24 10:22:06;;;;;;;15.13;3.87;;;12.70;99.90;;;;;;4917270;29;20216;-92
2023/05/24 10:24:45;;;;;;;9.63;4.33;;;12.60;99.90;;;;;;4916988;29;20209;-91
2023/05/24 10:27:21;;;;;;;9.23;3.90;;;12.60;99.90;;;;;;4917167;29;20225;-92
2023/05/24 10:30:00;;;;;;;10.60;4.23;;;12.60;99.90;;;;;;4915810;29;20216;-90
2023/05/24 10:32:36;;;;;;;6.87;3.83;;;12.60;99.90;;;;;;4917786;29;20229;-91
2023/05/24 10:35:11;;;;;;;13.03;4.53;;;12.50;99.90;;;;;;4899260;29;20674;-92
2023/05/24 10:37:43;;;;;;;9.23;3.93;;;12.50;99.90;;;;;;4900184;29;20205;-91
2023/05/24 10:40:25;;;;;;;9.77;3.87;;;12.50;99.90;;;;;;4901601;29;20246;-92
2023/05/24 10:42:57;;;;;;;7.87;4.03;;;12.50;99.90;;;;;;4903040;29;20209;-91
2023/05/24 10:45:38;;;;;;;9.10;3.80;;;12.50;99.90;;;;;;4920226;29;20701;-92
2023/05/24 10:48:35;;;;;;;10.40;4.17;;;12.40;99.90;;;;;;4919940;29;20220;-93
2023/05/24 10:51:38;;;;;;;9.23;4.23;;;12.40;99.90;;;;;;4920914;29;20223;-94
2023/05/24 10:54:18;;;;;;;8.37;4.07;;;12.40;99.90;;;;;;4920644;29;20232;-92
2023/05/24 10:56:53;;;;;;;8.80;4.67;;;12.30;99.90;;;;;;4920679;29;20714;-91
2023/05/24 10:59:29;;;;;;;9.73;3.87;;;12.30;99.90;;;;;;4907408;29;20209;-91
2023/05/24 11:02:02;;;;;;;9.40;4.20;;;12.30;99.90;;;;;;4911487;29;20228;-93
2023/05/24 11:04:35;;;;;;;9.07;4.20;;;12.30;99.90;;;;;;4901352;29;20222;-93
2023/05/24 11:07:10;;;;;;;7.90;4.03;;;12.30;99.90;;;;;;4904130;29;20210;-92
2023/05/24 11:09:45;;;;;;;9.83;3.97;;;12.30;99.90;;;;;;4919061;29;20216;-93
2023/05/24 11:12:19;;;;;;;10.37;4.03;;;12.30;99.90;;;;;;4920829;29;20209;-94
2023/05/24 11:14:52;;;;;;;11.37;4.47;;;12.30;99.90;;;;;;4916600;29;20232;-92
2023/05/24 11:17:24;;;;;;;9.47;4.07;;;12.30;99.90;;;;;;4917532;29;20217;-92
2023/05/24 11:19:56;;;;;;;11.77;4.20;;;12.30;99.90;;;;;;4918674;29;20213;-91
2023/05/24 11:22:28;;;;;;;9.77;3.87;;;12.20;99.90;;;;;;4919877;29;20209;-91
2023/05/24 11:25:04;;;;;;;7.57;3.90;;;12.30;99.90;;;;;;4919378;29;20272;-91
2023/05/24 11:27:45;;;;;;;10.03;3.73;;;12.20;99.90;;;;;;4917631;29;20213;-90
2023/05/24 11:30:19;;;;;;;10.33;4.07;;;12.20;99.90;;;;;;4914053;29;20217;-93
2023/05/24 11:32:51;;;;;;;11.03;4.13;;;12.20;99.90;;;;;;4919841;29;20240;-91
2023/05/24 11:35:26;;;;;;;11.63;3.87;;;12.20;99.90;;;;;;4915171;29;20244;-91
2023/05/24 11:37:58;;;;;;;13.40;4.37;;;12.20;99.90;;;;;;4917294;29;20568;-91
2023/05/24 11:40:30;;;;;;;9.07;3.97;;;12.20;99.90;;;;;;4919935;29;20201;-92
2023/05/24 11:43:08;;;;;;;13.77;3.90;;;12.10;99.90;;;;;;4919398;29;20304;-91
2023/05/24 11:45:42;;;;;;;10.03;3.80;;;12.20;99.90;;;;;;4919399;29;20216;-93
2023/05/24 11:48:14;;;;;;;10.17;4.13;;;12.10;99.90;;;;;;4918414;29;20205;-91
2023/05/24 11:50:47;;;;;;;11.07;3.83;;;12.10;99.90;;;;;;4919484;29;20285;-93
2023/05/24 11:53:21;;;;;;;12.43;4.27;;;12.10;99.90;;;;;;4919624;29;20318;-92
2023/05/24 11:55:55;;;;;;;9.83;3.73;;;12.00;99.90;;;;;;4919247;29;20209;-94
2023/05/24 11:58:37;;;;;;;10.33;3.67;;;12.10;99.90;;;;;;4919871;29;20296;-93
2023/05/24 12:01:27;;;;;;;6.57;3.33;;;12.00;99.90;;;;;;4901971;29;20213;-93
2023/05/24 12:03:59;;;;;;;12.57;4.57;;;12.10;99.90;;;;;;4923774;29;20301;-92
2023/05/24 12:06:39;;;;;;;5.93;3.57;;;12.10;99.90;;;;;;4940389;29;20200;-93
2023/05/24 12:09:12;;;;;;;14.73;4.23;;;12.00;99.90;;;;;;4924280;29;20675;-92
2023/05/24 12:11:45;;;;;;;10.40;3.67;;;12.00;99.90;;;;;;4910158;29;20209;-92
2023/05/24 12:14:19;;;;;;;12.00;3.80;;;12.00;99.90;;;;;;4911410;29;20248;-94
2023/05/24 12:16:51;;;;;;;8.60;3.97;;;12.00;99.90;;;;;;4919172;29;20247;-94
2023/05/24 12:19:24;;;;;;;10.60;3.83;;;12.00;99.90;;;;;;4918640;29;20224;-92
2023/05/24 12:21:59;;;;;;;10.40;3.90;;;12.00;99.90;;;;;;4906884;29;20222;-90
2023/05/24 12:24:33;;;;;;;14.13;4.00;;;12.00;99.90;;;;;;4900578;29;20313;-91
2023/05/24 12:27:08;;;;;;;11.47;3.90;;;12.00;99.90;;;;;;4900189;29;20220;-92
2023/05/24 12:29:43;;;;;;;9.47;3.90;;;12.00;99.90;;;;;;4908469;29;20209;-93
2023/05/24 12:32:14;;;;;;;10.97;4.00;;;12.00;99.90;;;;;;4918732;29;20216;-92
2023/05/24 12:34:47;;;;;;;9.40;4.07;;;12.00;99.90;;;;;;4918940;29;20233;-92
2023/05/24 12:37:20;;;;;;;12.07;4.17;;;12.00;99.90;;;;;;4919232;29;20220;-92
2023/05/24 12:39:51;;;;;;;10.57;4.23;;;12.00;99.90;;;;;;4913298;29;20209;-92
2023/05/24 12:42:24;;;;;;;10.70;3.50;;;12.10;99.90;;;;;;4904448;29;20612;-92
2023/05/24 12:44:58;;;;;;;8.43;3.83;;;12.10;99.90;;;;;;4912320;29;20674;-93
2023/05/24 12:47:31;;;;;;;9.10;4.10;;;12.10;99.90;;;;;;4902694;29;20221;-92
2023/05/24 12:50:02;;;;;;;10.43;4.00;;;12.00;99.90;;;;;;4899304;29;20292;-92
2023/05/24 12:52:33;;;;;;;11.37;4.37;;;12.00;99.90;;;;;;4899189;29;20269;-91
2023/05/24 12:55:05;;;;;;;14.20;4.03;;;12.00;99.90;;;;;;4899887;29;20245;-91
2023/05/24 12:57:37;;;;;;;10.43;4.00;;;12.00;99.90;;;;;;4915308;29;20220;-93
2023/05/24 13:00:16;;;;;;;9.43;4.23;;;12.00;99.90;;;;;;4919479;29;20227;-93
2023/05/24 13:02:48;;;;;;;11.00;3.97;;;12.10;99.90;;;;;;4918666;29;20223;-93
2023/05/24 13:05:22;;;;;;;10.13;3.60;;;12.10;99.90;;;;;;4912409;29;20289;-94
2023/05/24 13:07:55;;;;;;;10.67;4.17;;;12.10;99.90;;;;;;4909193;29;20209;-92
2023/05/24 13:10:28;;;;;;;11.87;3.73;;;12.10;99.90;;;;;;4913006;29;20280;-93
2023/05/24 13:12:59;;;;;;;10.00;3.53;;;12.20;99.90;;;;;;4909679;29;20261;-91
2023/05/24 13:15:33;;;;;;;11.50;3.60;;;12.20;99.90;;;;;;4915217;29;20236;-90
2023/05/24 13:18:05;;;;;;;12.03;3.40;;;12.20;99.90;;;;;;4907452;29;20683;-92